Time;durP1;ratioP1;P1;durP2;ratioP2;P2;SDS_P1;SDS_P2;PMS_P1;PMS_P2;Temp;Humidity;BMP_temperature;BMP_pressure;BME280_temperature;BME280_humidity;BME280_pressure;Samples;Min_cycle;Max_cycle;Signal;HPM_P1;HPM_P2
2023/03/08 00:01:55;;;;;;;1.00;1.00;;;;;3.00;94612.00;;;;5037116;28;20189;-59
2023/03/08 00:04:22;;;;;;;1.70;1.60;;;;;3.00;94612.00;;;;5036241;28;20228;-60
2023/03/08 00:06:50;;;;;;;1.23;1.23;;;;;3.00;94592.00;;;;5036489;28;20667;-59
2023/03/08 00:09:17;;;;;;;2.43;2.23;;;;;2.90;94601.00;;;;5036443;28;20617;-60
2023/03/08 00:11:44;;;;;;;1.83;1.73;;;;;2.80;94606.00;;;;5036191;28;20200;-59
2023/03/08 00:14:12;;;;;;;1.30;1.23;;;;;2.80;94596.00;;;;5036053;28;20270;-59
2023/03/08 00:16:40;;;;;;;2.43;2.23;;;;;2.80;94614.00;;;;5036605;28;20192;-59
2023/03/08 00:19:08;;;;;;;1.00;1.00;;;;;2.70;94598.00;;;;5036017;28;20192;-60
2023/03/08 00:21:35;;;;;;;1.83;1.20;;;;;2.80;94609.00;;;;5036033;28;20203;-60
2023/03/08 00:24:03;;;;;;;1.70;1.60;;;;;2.60;94612.00;;;;5036089;28;20715;-60
2023/03/08 00:26:30;;;;;;;4.33;2.37;;;;;2.50;94620.00;;;;5035794;28;20204;-60
2023/03/08 00:28:58;;;;;;;1.70;1.60;;;;;2.60;94612.00;;;;5035854;28;20201;-59
2023/03/08 00:31:25;;;;;;;1.30;1.30;;;;;2.70;94616.00;;;;5035827;28;20203;-61
2023/03/08 00:33:55;;;;;;;1.67;1.00;;;;;2.60;94619.00;;;;5035557;28;20281;-59
2023/03/08 00:36:22;;;;;;;1.30;1.30;;;;;2.50;94612.00;;;;5018062;28;20193;-60
2023/03/08 00:38:51;;;;;;;1.93;1.73;;;;;2.50;94607.00;;;;5036040;28;20200;-60
2023/03/08 00:41:18;;;;;;;1.83;1.70;;;;;2.50;94608.00;;;;5017893;28;20676;-60
2023/03/08 00:43:46;;;;;;;1.70;1.60;;;;;2.50;94591.00;;;;5035571;28;20223;-60
2023/03/08 00:46:14;;;;;;;6.83;3.47;;;;;2.40;94591.00;;;;5035452;28;20207;-60
2023/03/08 00:48:42;;;;;;;1.87;1.77;;;;;2.40;94600.00;;;;5035629;28;20624;-59
2023/03/08 00:51:14;;;;;;;1.83;1.73;;;;;2.50;94602.00;;;;5017793;28;20559;-59
2023/03/08 00:53:42;;;;;;;1.33;1.23;;;;;2.60;94594.00;;;;5035380;28;20576;-59
2023/03/08 00:56:09;;;;;;;1.93;1.73;;;;;2.50;94609.00;;;;5017682;28;20207;-59
2023/03/08 00:58:38;;;;;;;1.93;1.83;;;;;2.50;94608.00;;;;5034730;28;20242;-59
2023/03/08 01:01:06;;;;;;;2.10;1.83;;;;;2.40;94602.00;;;;5035717;28;20553;-60
2023/03/08 01:03:34;;;;;;;1.63;1.53;;;;;2.30;94594.00;;;;5035182;28;20226;-60
2023/03/08 01:06:06;;;;;;;3.90;2.70;;;;;2.30;94592.00;;;;5035206;28;20266;-60
2023/03/08 01:08:35;;;;;;;2.53;2.33;;;;;2.30;94578.00;;;;5035631;28;20208;-60
2023/03/08 01:11:03;;;;;;;1.57;1.47;;;;;2.00;94576.00;;;;5035522;28;20191;-60
2023/03/08 01:13:34;;;;;;;1.57;1.47;;;;;1.90;94574.00;;;;5035259;28;20543;-60
2023/03/08 01:16:02;;;;;;;1.87;1.77;;;;;2.00;94567.00;;;;5035285;28;20192;-59
2023/03/08 01:18:29;;;;;;;2.00;1.47;;;;;1.80;94582.00;;;;5017192;28;20199;-59
2023/03/08 01:20:58;;;;;;;1.93;1.83;;;;;1.60;94552.00;;;;5034966;28;20203;-60
2023/03/08 01:23:26;;;;;;;1.53;1.43;;;;;1.70;94548.00;;;;5034758;28;20206;-59
2023/03/08 01:26:00;;;;;;;4.40;2.23;;;;;1.60;94540.00;;;;5035257;28;20248;-59
2023/03/08 01:28:28;;;;;;;5.77;2.73;;;;;1.40;94541.00;;;;5034723;28;20800;-59
2023/03/08 01:31:00;;;;;;;2.07;1.93;;;;;1.40;94531.00;;;;5034683;28;20192;-59
2023/03/08 01:33:28;;;;;;;1.40;1.30;;;;;1.30;94531.00;;;;5034578;28;20199;-59
2023/03/08 01:35:55;;;;;;;4.23;2.10;;;;;1.40;94533.00;;;;5034844;28;20196;-59
2023/03/08 01:38:23;;;;;;;1.50;1.13;;;;;1.50;94514.00;;;;5035051;28;20248;-59
2023/03/08 01:40:56;;;;;;;3.63;3.30;;;;;1.10;94528.00;;;;5016790;28;20203;-59
2023/03/08 01:43:27;;;;;;;2.33;2.20;;;;;1.30;94513.00;;;;5034736;28;20665;-60
2023/03/08 01:46:21;;;;;;;1.73;1.63;;;;;1.20;94496.00;;;;5034841;28;20193;-59
2023/03/08 01:48:53;;;;;;;4.63;1.63;;;;;1.10;94498.00;;;;5034716;28;20213;-58
2023/03/08 01:51:26;;;;;;;1.43;1.30;;;;;1.00;94493.00;;;;5035075;28;20182;-59
2023/03/08 01:53:54;;;;;;;1.13;1.13;;;;;0.90;94486.00;;;;5034144;28;20215;-58
2023/03/08 01:56:23;;;;;;;2.07;1.97;;;;;1.10;94483.00;;;;5034207;28;20243;-58
2023/03/08 01:58:52;;;;;;;2.27;1.97;;;;;1.00;94488.00;;;;5034098;28;20195;-59
2023/03/08 02:01:21;;;;;;;4.27;2.17;;;;;0.90;94484.00;;;;5034273;28;20618;-58
2023/03/08 02:03:49;;;;;;;1.60;1.50;;;;;1.00;94489.00;;;;5034144;28;20218;-58
2023/03/08 02:06:18;;;;;;;2.00;1.90;;;;;1.30;94485.00;;;;5034253;28;20200;-59
2023/03/08 02:08:46;;;;;;;1.90;1.80;;;;;1.10;94501.00;;;;5017108;28;20697;-59
2023/03/08 02:11:15;;;;;;;1.93;1.83;;;;;1.10;94492.00;;;;5033965;28;20197;-60
2023/03/08 02:13:43;;;;;;;5.97;1.67;;;;;1.00;94486.00;;;;5033806;28;20218;-58
2023/03/08 02:16:14;;;;;;;1.63;1.53;;;;;1.10;94483.00;;;;5033850;28;20202;-59
2023/03/08 02:18:52;;;;;;;1.27;1.17;;;;;1.30;94483.00;;;;5033781;28;20188;-59
2023/03/08 02:21:20;;;;;;;2.13;2.03;;;;;1.10;94481.00;;;;5033772;28;20199;-58
2023/03/08 02:23:49;;;;;;;1.67;1.57;;;;;1.10;94445.00;;;;5015871;28;20706;-59
2023/03/08 02:26:17;;;;;;;2.00;1.43;;;;;1.20;94477.00;;;;5033866;28;20199;-58
2023/03/08 02:28:45;;;;;;;2.17;2.03;;;;;1.20;94481.00;;;;5033418;28;20219;-59
2023/03/08 02:31:13;;;;;;;4.33;1.87;;;;;1.20;94467.00;;;;5033436;28;20258;-59
2023/03/08 02:33:40;;;;;;;2.23;2.03;;;;;1.40;94464.00;;;;5033378;28;20219;-59
2023/03/08 02:36:09;;;;;;;5.60;2.00;;;;;1.50;94456.00;;;;5015657;28;20665;-59
2023/03/08 02:38:37;;;;;;;1.43;1.33;;;;;1.40;94466.00;;;;5033552;28;20222;-58
2023/03/08 02:41:06;;;;;;;2.40;2.23;;;;;1.50;94462.00;;;;5033396;28;20724;-58
2023/03/08 02:43:33;;;;;;;1.23;1.23;;;;;1.30;94455.00;;;;5033100;28;20677;-58
2023/03/08 02:46:01;;;;;;;1.63;1.53;;;;;1.40;94455.00;;;;5033491;28;20567;-59
2023/03/08 02:48:28;;;;;;;2.30;2.10;;;;;1.50;94440.00;;;;5033086;28;20212;-58
2023/03/08 02:50:57;;;;;;;2.00;1.83;;;;;1.60;94441.00;;;;5033078;28;20703;-59
2023/03/08 02:53:24;;;;;;;1.10;1.10;;;;;1.50;94433.00;;;;5033407;28;20306;-59
2023/03/08 02:55:51;;;;;;;1.97;1.83;;;;;1.50;94428.00;;;;5033208;28;20199;-59
2023/03/08 02:58:20;;;;;;;3.40;2.17;;;;;1.80;94426.00;;;;5033155;28;20200;-58
2023/03/08 03:00:48;;;;;;;3.13;1.73;;;;;1.60;94418.00;;;;5033607;28;20221;-59
2023/03/08 03:03:16;;;;;;;2.50;2.10;;;;;1.60;94405.00;;;;5033102;28;20200;-59
2023/03/08 03:05:44;;;;;;;4.00;2.03;;;;;1.60;94393.00;;;;5033156;28;20696;-61
2023/03/08 03:08:12;;;;;;;0.80;0.80;;;;;1.80;94382.00;;;;5033215;28;20214;-59
2023/03/08 03:10:40;;;;;;;1.53;1.43;;;;;1.60;94377.00;;;;5032897;28;20724;-59
2023/03/08 03:13:08;;;;;;;2.07;1.97;;;;;1.70;94378.00;;;;5033593;28;20195;-59
2023/03/08 03:15:38;;;;;;;1.43;1.37;;;;;1.70;94372.00;;;;5016001;28;20219;-59
2023/03/08 03:18:06;;;;;;;2.33;2.13;;;;;1.60;94374.00;;;;5033544;28;20216;-59
2023/03/08 03:20:33;;;;;;;1.40;1.40;;;;;1.60;94375.00;;;;5035536;28;20207;-59
2023/03/08 03:23:01;;;;;;;16.57;2.13;;;;;1.50;94376.00;;;;5040051;28;20203;-60
2023/03/08 03:25:28;;;;;;;2.53;1.57;;;;;1.50;94366.00;;;;5021782;28;20222;-60
2023/03/08 03:27:56;;;;;;;1.43;1.27;;;;;1.50;94358.00;;;;5039787;28;20223;-60
2023/03/08 03:30:24;;;;;;;2.87;2.50;;;;;1.50;94342.00;;;;5039712;28;20205;-59
2023/03/08 03:32:52;;;;;;;2.07;1.87;;;;;1.40;94345.00;;;;5039975;28;20211;-60
2023/03/08 03:35:20;;;;;;;1.50;1.40;;;;;1.40;94334.00;;;;5039345;28;20215;-60
2023/03/08 03:37:47;;;;;;;3.33;2.67;;;;;1.50;94334.00;;;;5039627;28;20206;-60
2023/03/08 03:40:15;;;;;;;2.60;1.93;;;;;1.60;94329.00;;;;5039277;28;20200;-59
2023/03/08 03:42:42;;;;;;;3.30;2.60;;;;;1.50;94327.00;;;;5039270;28;20203;-59
2023/03/08 03:45:11;;;;;;;0.93;0.93;;;;;1.40;94341.00;;;;5039526;28;20214;-59
2023/03/08 03:47:38;;;;;;;1.53;1.43;;;;;1.50;94339.00;;;;5039254;28;20202;-58
2023/03/08 03:50:08;;;;;;;2.27;1.90;;;;;1.30;94342.00;;;;5039275;28;20206;-60
2023/03/08 03:52:35;;;;;;;2.40;2.20;;;;;1.20;94337.00;;;;5040005;28;20187;-60
2023/03/08 03:55:03;;;;;;;2.17;2.07;;;;;1.20;94337.00;;;;5039125;28;20330;-59
2023/03/08 03:57:30;;;;;;;2.43;2.23;;;;;1.20;94331.00;;;;5039221;28;20197;-59
2023/03/08 03:59:57;;;;;;;3.03;2.03;;;;;1.40;94317.00;;;;5039443;28;20266;-59
2023/03/08 04:02:25;;;;;;;1.33;1.33;;;;;1.40;94325.00;;;;5039145;28;20676;-59
2023/03/08 04:04:52;;;;;;;1.60;1.37;;;;;1.30;94329.00;;;;5069440;22;20233;-60
2023/03/08 04:07:21;;;;;;;2.07;1.87;;;;;1.40;94321.00;;;;5079513;28;20220;-59
2023/03/08 04:09:48;;;;;;;2.93;2.40;;;;;1.40;94310.00;;;;5079377;28;20221;-59
2023/03/08 04:12:16;;;;;;;2.10;1.73;;;;;1.50;94318.00;;;;5079633;28;20206;-59
2023/03/08 04:14:43;;;;;;;2.37;2.27;;;;;1.50;94319.00;;;;5069906;28;20225;-59
2023/03/08 04:17:11;;;;;;;0.97;0.97;;;;;1.40;94318.00;;;;5059341;28;20557;-59
2023/03/08 04:19:38;;;;;;;1.60;1.50;;;;;1.70;94316.00;;;;5059069;28;20202;-59
2023/03/08 04:22:05;;;;;;;1.80;1.70;;;;;1.70;94320.00;;;;5059566;28;20190;-59
2023/03/08 04:24:34;;;;;;;1.57;1.40;;;;;1.80;94325.00;;;;5059196;28;20244;-59
2023/03/08 04:27:02;;;;;;;2.27;2.07;;;;;1.50;94317.00;;;;5059035;28;20195;-59
2023/03/08 04:29:29;;;;;;;2.10;2.00;;;;;1.50;94312.00;;;;5058894;28;20214;-59
2023/03/08 04:31:59;;;;;;;2.17;1.97;;;;;1.50;94302.00;;;;5057163;28;20217;-59
2023/03/08 04:34:27;;;;;;;1.60;1.50;;;;;1.40;94295.00;;;;5055770;28;20214;-59
2023/03/08 04:36:54;;;;;;;1.37;1.27;;;;;1.40;94278.00;;;;5056237;28;20282;-59
2023/03/08 04:39:21;;;;;;;2.00;1.90;;;;;1.50;94280.00;;;;5055738;28;20249;-59
2023/03/08 04:41:50;;;;;;;1.93;1.83;;;;;1.70;94277.00;;;;5056496;28;20258;-59
2023/03/08 04:44:17;;;;;;;1.90;1.80;;;;;1.60;94265.00;;;;5055512;28;20219;-59
2023/03/08 04:46:45;;;;;;;1.13;1.13;;;;;1.80;94263.00;;;;5037834;28;20199;-59
2023/03/08 04:49:12;;;;;;;1.73;1.63;;;;;1.90;94261.00;;;;5055390;28;20222;-59
2023/03/08 04:51:40;;;;;;;2.27;2.07;;;;;1.80;94258.00;;;;5055905;28;20203;-59
2023/03/08 04:54:07;;;;;;;3.47;1.33;;;;;1.70;94262.00;;;;5055370;28;20277;-59
2023/03/08 04:56:35;;;;;;;1.90;1.80;;;;;1.70;94261.00;;;;5055349;28;20222;-59
2023/03/08 04:59:04;;;;;;;1.70;1.60;;;;;1.80;94266.00;;;;5037506;28;20210;-59
2023/03/08 05:01:31;;;;;;;1.17;1.13;;;;;1.90;94259.00;;;;5055788;28;20715;-60
2023/03/08 05:03:59;;;;;;;1.60;1.50;;;;;2.10;94262.00;;;;5055666;28;20195;-60
2023/03/08 05:06:27;;;;;;;2.50;2.13;;;;;2.00;94267.00;;;;5055339;28;20187;-59
2023/03/08 05:08:55;;;;;;;1.47;1.43;;;;;2.00;94244.00;;;;5037215;28;20229;-59
2023/03/08 05:11:24;;;;;;;1.80;1.70;;;;;1.80;94251.00;;;;5055582;28;20195;-59
2023/03/08 05:13:52;;;;;;;1.70;1.60;;;;;2.00;94250.00;;;;5055307;28;20226;-59
2023/03/08 05:16:21;;;;;;;1.00;1.00;;;;;1.90;94229.00;;;;5055065;28;20194;-59
2023/03/08 05:18:49;;;;;;;2.33;2.23;;;;;2.00;94228.00;;;;5055435;28;20186;-59
2023/03/08 05:21:18;;;;;;;2.10;2.00;;;;;2.00;94223.00;;;;5036977;28;20198;-59
2023/03/08 05:23:46;;;;;;;3.00;2.70;;;;;1.90;94216.00;;;;5055222;28;20223;-59
2023/03/08 05:26:16;;;;;;;1.77;1.67;;;;;2.00;94230.00;;;;5054775;28;20521;-59
2023/03/08 05:28:43;;;;;;;1.90;1.70;;;;;2.10;94217.00;;;;5054738;28;20215;-59
2023/03/08 05:31:13;;;;;;;1.47;1.37;;;;;2.00;94208.00;;;;5055159;28;20201;-59
2023/03/08 05:33:43;;;;;;;1.20;1.10;;;;;1.80;94201.00;;;;5054977;28;20586;-60
2023/03/08 05:36:12;;;;;;;2.30;1.97;;;;;1.90;94210.00;;;;5054616;28;20201;-59
2023/03/08 05:38:39;;;;;;;2.03;1.63;;;;;2.00;94206.00;;;;5054622;28;20192;-59
2023/03/08 05:41:09;;;;;;;1.40;1.40;;;;;2.10;94209.00;;;;5054593;28;20248;-59
2023/03/08 05:43:36;;;;;;;1.77;1.67;;;;;2.20;94209.00;;;;5054371;28;20648;-59
2023/03/08 05:46:05;;;;;;;2.00;1.90;;;;;2.10;94200.00;;;;5055077;28;20249;-59
2023/03/08 05:48:35;;;;;;;1.93;1.47;;;;;2.10;94200.00;;;;5054242;28;20218;-59
2023/03/08 05:51:08;;;;;;;2.50;2.33;;;;;2.10;94197.00;;;;5054617;28;20552;-59
2023/03/08 05:53:36;;;;;;;1.90;1.80;;;;;2.20;94191.00;;;;5036743;28;20187;-59
2023/03/08 05:56:11;;;;;;;0.90;0.90;;;;;2.30;94204.00;;;;5054200;28;20218;-59
2023/03/08 05:58:38;;;;;;;2.10;2.00;;;;;1.90;94190.00;;;;5054316;28;20195;-59
2023/03/08 06:01:11;;;;;;;1.63;1.53;;;;;2.10;94201.00;;;;5054386;28;20217;-60
2023/03/08 06:03:38;;;;;;;1.97;1.70;;;;;2.10;94191.00;;;;5054629;28;20192;-59
2023/03/08 06:06:07;;;;;;;1.90;1.80;;;;;2.20;94193.00;;;;5053971;28;20223;-59
2023/03/08 06:08:35;;;;;;;0.93;0.93;;;;;2.20;94181.00;;;;5053910;28;20238;-59
2023/03/08 06:11:02;;;;;;;3.90;2.17;;;;;2.20;94157.00;;;;5053984;28;20194;-61
2023/03/08 06:13:30;;;;;;;5.37;2.90;;;;;2.30;94177.00;;;;5054441;28;20206;-59
2023/03/08 06:15:59;;;;;;;1.90;1.80;;;;;2.30;94182.00;;;;5053761;28;20218;-59
2023/03/08 06:18:27;;;;;;;1.40;1.40;;;;;2.40;94171.00;;;;5053721;28;20203;-60
2023/03/08 06:20:59;;;;;;;2.00;1.53;;;;;2.40;94165.00;;;;5053774;28;20199;-59
2023/03/08 06:23:29;;;;;;;1.43;1.33;;;;;2.20;94181.00;;;;5054900;28;20631;-59
2023/03/08 06:25:57;;;;;;;1.70;1.60;;;;;2.30;94169.00;;;;5054269;28;20221;-59
2023/03/08 06:28:25;;;;;;;1.80;1.23;;;;;2.30;94162.00;;;;5035587;28;20574;-59
2023/03/08 06:30:53;;;;;;;4.70;2.87;;;;;2.40;94163.00;;;;5054609;28;20204;-59
2023/03/08 06:33:22;;;;;;;1.60;1.50;;;;;2.20;94156.00;;;;5053793;28;20564;-58
2023/03/08 06:35:57;;;;;;;9.73;1.73;;;;;2.30;94159.00;;;;5053469;28;20210;-59
2023/03/08 06:38:24;;;;;;;2.20;1.70;;;;;2.40;94150.00;;;;5053890;28;20183;-59
2023/03/08 06:40:53;;;;;;;5.30;2.83;;;;;2.50;94161.00;;;;5053377;28;20191;-59
2023/03/08 06:43:21;;;;;;;2.00;1.30;;;;;2.40;94159.00;;;;5035947;28;20205;-59
2023/03/08 06:45:49;;;;;;;4.03;1.63;;;;;2.40;94150.00;;;;5053519;28;20298;-59
2023/03/08 06:48:16;;;;;;;1.03;1.03;;;;;2.10;94146.00;;;;5054069;28;20204;-59
2023/03/08 06:50:44;;;;;;;2.17;2.07;;;;;2.30;94158.00;;;;5053659;28;20229;-59
2023/03/08 06:53:12;;;;;;;1.90;1.80;;;;;2.30;94148.00;;;;5053523;28;20607;-60
2023/03/08 06:55:40;;;;;;;1.60;1.23;;;;;2.30;94154.00;;;;5052889;28;20222;-59
2023/03/08 06:58:09;;;;;;;2.30;2.03;;;;;2.30;94145.00;;;;5053046;28;20221;-59
2023/03/08 07:00:38;;;;;;;3.60;1.83;;;;;2.30;94137.00;;;;5053103;28;20199;-59
2023/03/08 07:03:05;;;;;;;1.07;1.07;;;;;2.30;94133.00;;;;5053508;28;20200;-59
2023/03/08 07:05:33;;;;;;;1.87;1.80;;;;;2.40;94125.00;;;;5052948;28;20219;-59
2023/03/08 07:08:00;;;;;;;1.20;1.10;;;;;2.30;94112.00;;;;5035123;28;20202;-59
2023/03/08 07:10:28;;;;;;;2.17;1.53;;;;;2.40;94107.00;;;;5052773;28;20226;-59
2023/03/08 07:12:55;;;;;;;1.83;1.73;;;;;2.10;94110.00;;;;5052986;28;20228;-59
2023/03/08 07:15:24;;;;;;;1.40;1.40;;;;;2.30;94112.00;;;;5053259;28;20226;-60
2023/03/08 07:17:54;;;;;;;1.53;1.43;;;;;2.40;94109.00;;;;5052976;28;20222;-59
2023/03/08 07:20:24;;;;;;;2.40;1.73;;;;;2.30;94107.00;;;;5034755;28;20199;-59
2023/03/08 07:22:51;;;;;;;4.00;2.10;;;;;2.20;94096.00;;;;5053241;28;20219;-60
2023/03/08 07:25:20;;;;;;;2.23;2.03;;;;;2.20;94095.00;;;;5052769;28;20291;-59
2023/03/08 07:27:48;;;;;;;1.87;1.77;;;;;2.30;94080.00;;;;5052861;28;20203;-60
2023/03/08 07:30:16;;;;;;;1.60;1.50;;;;;2.30;94083.00;;;;5052820;28;20219;-59
2023/03/08 07:32:45;;;;;;;2.53;2.43;;;;;2.30;94086.00;;;;5052922;28;20199;-60
2023/03/08 07:35:14;;;;;;;0.80;0.80;;;;;2.40;94079.00;;;;5053510;28;20230;-60
2023/03/08 07:37:44;;;;;;;2.07;1.97;;;;;2.50;94082.00;;;;5052546;28;20204;-59
2023/03/08 07:40:13;;;;;;;2.30;2.13;;;;;2.40;94072.00;;;;5052549;28;20662;-61
2023/03/08 07:42:41;;;;;;;4.10;2.30;;;;;2.50;94071.00;;;;5052622;28;20197;-60
2023/03/08 07:45:10;;;;;;;2.40;1.33;;;;;2.60;94065.00;;;;5052798;28;20215;-59
2023/03/08 07:47:37;;;;;;;1.40;1.40;;;;;2.40;94060.00;;;;5053204;28;20586;-60
2023/03/08 07:50:06;;;;;;;2.47;2.27;;;;;2.40;94048.00;;;;5052441;28;20215;-59
2023/03/08 07:52:34;;;;;;;1.30;1.20;;;;;2.60;94051.00;;;;5052563;28;20199;-60
2023/03/08 07:55:02;;;;;;;0.93;0.93;;;;;2.60;94044.00;;;;5052361;28;20218;-59
2023/03/08 07:57:29;;;;;;;0.90;0.90;;;;;2.50;94023.00;;;;5052938;28;20199;-59
2023/03/08 07:59:57;;;;;;;2.63;1.60;;;;;2.60;94000.00;;;;5052433;28;20633;-60
2023/03/08 08:02:24;;;;;;;1.20;1.20;;;;;2.80;93991.00;;;;5052410;28;20199;-59
2023/03/08 08:04:52;;;;;;;2.33;2.23;;;;;2.80;93991.00;;;;5052296;28;20666;-59
2023/03/08 08:07:20;;;;;;;4.20;2.30;;;;;3.00;93990.00;;;;5054665;28;20203;-59
2023/03/08 08:09:48;;;;;;;1.50;1.40;;;;;3.10;93993.00;;;;5056593;28;20215;-60
2023/03/08 08:12:15;;;;;;;1.23;1.23;;;;;3.00;93999.00;;;;5056088;28;20188;-59
2023/03/08 08:14:43;;;;;;;1.20;1.20;;;;;2.80;94001.00;;;;5055965;28;20214;-59
2023/03/08 08:17:10;;;;;;;1.20;1.20;;;;;2.70;93996.00;;;;5056492;28;20559;-59
2023/03/08 08:19:38;;;;;;;2.80;1.93;;;;;2.80;93983.00;;;;5056180;28;20525;-59
2023/03/08 08:22:06;;;;;;;1.23;1.23;;;;;2.80;93986.00;;;;5055881;28;20194;-59
2023/03/08 08:24:34;;;;;;;1.30;1.30;;;;;2.80;93977.00;;;;5055966;28;20250;-60
2023/03/08 08:27:02;;;;;;;1.00;1.00;;;;;3.00;93969.00;;;;5031886;28;20207;-60
2023/03/08 08:29:29;;;;;;;1.57;1.47;;;;;3.10;93965.00;;;;5053898;28;20246;-59
2023/03/08 08:31:57;;;;;;;1.57;1.47;;;;;3.30;93967.00;;;;5036314;28;20204;-60
2023/03/08 08:34:24;;;;;;;1.40;1.33;;;;;3.20;93953.00;;;;5054062;28;20223;-60
2023/03/08 08:36:52;;;;;;;1.93;1.83;;;;;3.30;93957.00;;;;5050076;28;20192;-60
2023/03/08 08:39:19;;;;;;;2.80;2.00;;;;;3.30;93976.00;;;;5053579;28;20210;-60
2023/03/08 08:41:49;;;;;;;2.00;1.90;;;;;3.30;93951.00;;;;5036449;28;20229;-59
2023/03/08 08:44:16;;;;;;;2.40;2.23;;;;;3.40;93950.00;;;;5053025;28;20265;-60
2023/03/08 08:46:44;;;;;;;1.73;1.63;;;;;3.60;93944.00;;;;5036633;28;20204;-60
2023/03/08 08:49:12;;;;;;;2.43;2.23;;;;;3.50;93941.00;;;;5053048;28;20201;-59
2023/03/08 08:51:39;;;;;;;1.97;1.87;;;;;3.50;93925.00;;;;5053865;28;20284;-60
2023/03/08 08:54:06;;;;;;;1.77;1.30;;;;;3.70;93942.00;;;;5051755;28;20223;-60
2023/03/08 08:56:41;;;;;;;1.93;1.83;;;;;3.20;93936.00;;;;5035741;28;20218;-59
2023/03/08 08:59:11;;;;;;;1.63;1.30;;;;;3.40;93924.00;;;;5053425;28;20218;-59
2023/03/08 09:01:42;;;;;;;3.60;1.87;;;;;3.10;93932.00;;;;5053499;28;20200;-59
2023/03/08 09:04:10;;;;;;;1.63;1.53;;;;;3.30;93934.00;;;;5035290;28;20224;-60
2023/03/08 09:06:38;;;;;;;1.57;1.47;;;;;3.30;93924.00;;;;5053184;28;20191;-60
2023/03/08 09:09:06;;;;;;;2.13;2.03;;;;;3.20;93930.00;;;;5053447;28;20203;-59
2023/03/08 09:11:34;;;;;;;2.33;2.23;;;;;3.30;93919.00;;;;5052988;28;20228;-59
2023/03/08 09:14:02;;;;;;;1.73;1.63;;;;;3.30;93907.00;;;;5052906;28;20210;-60
2023/03/08 09:16:33;;;;;;;1.47;1.37;;;;;3.60;93906.00;;;;5053000;28;20268;-60
2023/03/08 09:19:03;;;;;;;10.17;2.43;;;;;3.60;93914.00;;;;5052070;28;20192;-60
2023/03/08 09:21:32;;;;;;;2.87;2.67;;;;;3.60;93905.00;;;;5052895;28;20188;-60
2023/03/08 09:24:01;;;;;;;2.10;1.90;;;;;3.80;93896.00;;;;5053107;28;20207;-59
2023/03/08 09:26:30;;;;;;;1.77;1.70;;;;;3.80;93912.00;;;;5052345;28;20214;-59
2023/03/08 09:29:03;;;;;;;4.10;1.93;;;;;3.80;93902.00;;;;5034614;28;20208;-61
2023/03/08 09:31:33;;;;;;;1.83;1.73;;;;;3.60;93897.00;;;;5047189;28;20212;-60
2023/03/08 09:34:03;;;;;;;2.73;2.53;;;;;3.70;93892.00;;;;5052933;28;20693;-59
2023/03/08 09:36:30;;;;;;;2.10;2.00;;;;;3.90;93885.00;;;;5052216;28;20234;-59
2023/03/08 09:38:58;;;;;;;1.57;1.53;;;;;4.20;93885.00;;;;5053510;28;20231;-59
2023/03/08 09:41:41;;;;;;;2.93;1.97;;;;;4.30;93879.00;;;;5052065;28;20203;-59
2023/03/08 09:44:52;;;;;;;7.23;2.80;;;;;4.10;93894.00;;;;5052890;28;20220;-60
2023/03/08 09:47:33;;;;;;;2.33;2.13;;;;;4.40;93889.00;;;;5047749;28;20204;-59
2023/03/08 09:50:12;;;;;;;1.53;1.40;;;;;4.10;93875.00;;;;5051590;28;20702;-60
2023/03/08 09:52:42;;;;;;;1.93;1.83;;;;;4.30;93883.00;;;;5052016;28;20188;-59
2023/03/08 09:55:17;;;;;;;1.57;1.47;;;;;4.40;93879.00;;;;5052034;28;20635;-60
2023/03/08 09:57:51;;;;;;;1.50;1.47;;;;;4.50;93876.00;;;;5050533;28;20210;-59
2023/03/08 10:00:23;;;;;;;1.23;1.23;;;;;4.40;93864.00;;;;5053395;28;20679;-59
2023/03/08 10:03:03;;;;;;;1.10;1.10;;;;;4.50;93870.00;;;;5051626;28;20637;-59
2023/03/08 10:05:37;;;;;;;1.43;1.30;;;;;4.50;93866.00;;;;5066629;22;20235;-66
2023/03/08 10:08:12;;;;;;;0.90;0.90;;;;;4.50;93879.00;;;;5033533;28;20290;-67
2023/03/08 10:10:48;;;;;;;1.47;1.37;;;;;4.40;93873.00;;;;5052843;28;20199;-67
2023/03/08 10:13:33;;;;;;;1.60;1.17;;;;;4.60;93860.00;;;;5050413;28;20203;-67
2023/03/08 10:16:12;;;;;;;1.33;1.33;;;;;4.60;93870.00;;;;5051859;28;20222;-67
2023/03/08 10:18:47;;;;;;;1.57;1.47;;;;;4.70;93867.00;;;;5051897;28;20188;-66
2023/03/08 10:21:18;;;;;;;1.57;1.47;;;;;4.80;93872.00;;;;5032618;28;20189;-67
2023/03/08 10:23:48;;;;;;;1.13;1.10;;;;;5.00;93862.00;;;;5032175;28;20193;-67
2023/03/08 10:26:17;;;;;;;0.70;0.70;;;;;5.20;93864.00;;;;5032064;28;20216;-67
2023/03/08 10:28:45;;;;;;;1.27;1.23;;;;;5.40;93834.00;;;;5031803;28;20196;-66
2023/03/08 10:31:24;;;;;;;1.10;1.10;;;;;5.90;93844.00;;;;5030796;28;20220;-67
2023/03/08 10:34:02;;;;;;;1.10;1.00;;;;;6.00;93833.00;;;;5031819;28;20409;-66
2023/03/08 10:36:30;;;;;;;0.70;0.70;;;;;6.40;93834.00;;;;5031665;28;20232;-67
2023/03/08 10:39:00;;;;;;;0.83;0.83;;;;;6.70;93823.00;;;;5031793;28;20193;-66
2023/03/08 10:41:31;;;;;;;0.60;0.60;;;;;6.90;93850.00;;;;5032290;28;20189;-66
2023/03/08 10:44:00;;;;;;;0.50;0.50;;;;;7.10;93838.00;;;;5014043;28;20193;-66
2023/03/08 10:46:31;;;;;;;0.60;0.60;;;;;7.00;93844.00;;;;5031448;28;20692;-66
2023/03/08 10:49:09;;;;;;;0.97;0.97;;;;;7.00;93844.00;;;;5013947;28;20192;-65
2023/03/08 10:51:37;;;;;;;0.70;0.70;;;;;7.20;93829.00;;;;5031787;28;20565;-65
2023/03/08 10:54:06;;;;;;;0.70;0.70;;;;;7.40;93891.00;;;;5013700;28;20685;-65
2023/03/08 10:56:38;;;;;;;0.70;0.70;;;8.10;84.90;7.40;93839.00;;;;5031701;28;20324;-66
2023/03/08 10:59:07;;;;;;;0.50;0.50;;;;;7.40;93805.00;;;;5031728;28;20589;-65
2023/03/08 11:01:35;;;;;;;0.73;0.73;;;;;7.70;93851.00;;;;5016318;28;20658;-66
2023/03/08 11:04:06;;;;;;;0.50;0.50;;;;;7.80;93825.00;;;;5036246;28;20204;-66
2023/03/08 11:06:35;;;;;;;0.80;0.80;;;8.60;82.10;8.00;93847.00;;;;5051276;28;20235;-66
2023/03/08 11:09:04;;;;;;;0.73;0.73;;;;;7.70;93844.00;;;;5051096;28;20682;-67
2023/03/08 11:11:41;;;;;;;0.60;0.60;;;8.30;83.40;7.60;93835.00;;;;5027268;28;20236;-67
2023/03/08 11:14:10;;;;;;;0.63;0.63;;;8.40;84.40;7.70;93859.00;;;;5032159;28;20192;-69
2023/03/08 11:16:58;;;;;;;0.60;0.60;;;8.30;85.00;7.80;93861.00;;;;5031449;28;20220;-67
2023/03/08 11:19:36;;;;;;;0.50;0.50;;;;;7.60;93854.00;;;;5031518;28;20689;-66
2023/03/08 11:22:18;;;;;;;0.50;0.50;;;;;7.70;93870.00;;;;5031145;28;20192;-67
2023/03/08 11:25:02;;;;;;;0.60;0.60;;;8.50;80.50;7.90;93829.00;;;;5031085;28;20232;-66
2023/03/08 11:27:48;;;;;;;0.73;0.73;;;8.40;79.90;7.90;93877.00;;;;5031364;28;20193;-66
2023/03/08 11:30:29;;;;;;;0.80;0.80;;;8.50;79.80;7.90;93865.00;;;;5031019;28;20209;-67
2023/03/08 11:33:26;;;;;;;1.27;1.20;;;;;7.80;93862.00;;;;5031085;28;20554;-66
2023/03/08 11:36:02;;;;;;;0.57;0.57;;;;;7.90;93871.00;;;;5030543;28;20219;-67
2023/03/08 11:38:32;;;;;;;0.67;0.67;;;;;7.80;93876.00;;;;5031287;28;20239;-67
2023/03/08 11:41:11;;;;;;;0.60;0.60;;;;;7.80;93871.00;;;;5031434;28;20192;-66
2023/03/08 11:44:00;;;;;;;0.87;0.87;;;8.60;78.30;7.80;93924.00;;;;5034883;28;20714;-67
2023/03/08 11:46:45;;;;;;;0.70;0.70;;;;;7.90;93862.00;;;;5034815;28;20236;-67
2023/03/08 11:49:30;;;;;;;1.40;1.37;;;;;8.10;93865.00;;;;5017490;28;20204;-67
2023/03/08 11:52:08;;;;;;;0.70;0.70;;;;;7.90;93872.00;;;;5034685;28;20204;-67
2023/03/08 11:54:54;;;;;;;0.70;0.70;;;8.70;78.50;8.00;93881.00;;;;5035224;28;20199;-66
2023/03/08 11:57:23;;;;;;;0.73;0.73;;;;;8.00;93875.00;;;;5034529;28;20207;-66
2023/03/08 11:59:55;;;;;;;0.60;0.60;;;;;8.00;93876.00;;;;5038261;28;20203;-68
2023/03/08 12:02:28;;;;;;;0.67;0.67;;;8.80;77.40;8.10;93873.00;;;;5036148;28;20254;-71
2023/03/08 12:05:03;;;;;;;1.07;0.70;;;8.80;77.90;8.10;93834.00;;;;5034622;28;20250;-68
2023/03/08 12:07:35;;;;;;;0.60;0.60;;;;;8.20;93853.00;;;;5034315;28;20247;-70
2023/03/08 12:10:14;;;;;;;0.50;0.50;;;;;8.40;93869.00;;;;5034936;28;20759;-72
2023/03/08 12:12:47;;;;;;;0.60;0.60;;;;;8.50;93870.00;;;;5033609;28;20212;-72
2023/03/08 12:15:24;;;;;;;0.60;0.60;;;;;8.60;93892.00;;;;5033367;28;20224;-67
2023/03/08 12:17:56;;;;;;;0.60;0.60;;;;;9.00;93867.00;;;;5034536;28;20192;-71
2023/03/08 12:20:25;;;;;;;0.50;0.50;;;;;8.80;93887.00;;;;5035039;28;20193;-73
2023/03/08 12:23:00;;;;;;;0.50;0.50;;;;;8.30;93886.00;;;;5054150;28;20269;-75
2023/03/08 12:25:32;;;;;;;0.70;0.70;;;;;8.30;93890.00;;;;5054114;28;20219;-71
2023/03/08 12:28:09;;;;;;;0.70;0.70;;;;;8.60;93882.00;;;;5046386;28;20224;-68
2023/03/08 12:30:53;;;;;;;0.70;0.70;;;9.30;76.20;8.70;93887.00;;;;5034460;28;20204;-69
2023/03/08 12:33:21;;;;;;;0.60;0.60;;;;;8.40;93878.00;;;;5029693;28;20215;-69
2023/03/08 12:35:53;;;;;;;0.80;0.80;;;;;8.50;93899.00;;;;5054088;28;20694;-68
2023/03/08 12:38:34;;;;;;;0.60;0.60;;;9.20;77.30;8.60;93882.00;;;;5031639;28;20200;-69